UNN weather

Ranong Airport
Ranong Province, Thailand

Public forecast

Using degrees Celsius for public forecast. Weather courtesy of forecast.io.

Current aviation weather report (METAR) for Ranong Airport

Retrieved 2020/04/10 06:00 UTC (27 minutes ago):

VTSR 100600Z VRB06KT 9999 SCT030 36/23 Q1011 NOSIG

Aviation forecast (TAF) for Ranong Airport

Retrieved 2020/04/10 06:00 UTC (27 minutes ago):

TAF VTSR 100500Z 1006/1106 10008KT 9999 FEW030 TEMPO 1008/1012 10015G30KT 5000 TSRA FEW018CB SCT020 BKN100